Terminal Aerodrome Forecast
Issued by NWS

Home | Current Version | Previous Version | Text Only | Print | Product List | Glossary On
Versions: 1 2 3 4 5 6 7 8 9 10 11 12 13
000
FTUS45 KRIW 251700 RRA
TAFWRL
TAF
KWRL 251742Z 2518/2618 35012KT 1/4SM SN FZFG VV006
     FM252000 34010KT 1SM -SN OVC010
      TEMPO 2520/2521 1/4SM +SN OVC006
     FM260100 32008KT 4SM -SN SCT015 OVC025
     FM261000 30006KT P6SM -SN OVC035
     FM261200 VRB04KT P6SM VCSH BKN040
     FM261600 VRB04KT P6SM BKN040=

USA.gov is the U.S. government's official web portal to all federal, state and local government web resources and services.